South Zanesville, Ohio
Current Conditions -  °F | °C
As of 4:53 AM on Monday 20 Oct 2014 (Local Time) from KZZV Reporting Station
Clear Clear  
Wind Chill: 42°   Ceiling: Unl
Heat Index: 42°   Visibility: 10mi
Dew Point: 37°   Wind: 3mph
Humidity: 82%   Direction: 180°S
Pressure: 30.03"   Gusts: NA
Location:  39.9406°N, 82.0133°W
Report Text: KZZV 200853Z AUTO 18003KT 10SM CLR 06/03 A3003 RMK AO2 SLP171 T00560028 58008
Loading
Personal Weather Stations






























Interactive Weather Map
Tropical Storm Tracking
New forecast layout! Learn more

10-Day Weather Forecast

Advertisements
Track Severe Weather on mobile